Time;durP1;ratioP1;P1;durP2;ratioP2;P2;SDS_P1;SDS_P2;PMS_P1;PMS_P2;Temp;Humidity;BMP_temperature;BMP_pressure;BME280_temperature;BME280_humidity;BME280_pressure;Samples;Min_cycle;Max_cycle;Signal;HPM_P1;HPM_P2
2022/08/04 00:01:48;;;;;;;5.82;3.90;;;23.70;62.30;;;;;;5035078;28;20025;-13
2022/08/04 00:04:29;;;;;;;6.05;3.70;;;23.60;62.20;;;;;;5034841;28;20026;-15
2022/08/04 00:07:12;;;;;;;6.72;3.60;;;23.60;62.30;;;;;;5034798;28;20022;-13
2022/08/04 00:10:03;;;;;;;6.07;3.70;;;23.60;62.30;;;;;;5034832;28;20033;-13
2022/08/04 00:12:32;;;;;;;5.20;3.40;;;23.60;62.50;;;;;;5034867;28;20017;-13
2022/08/04 00:15:00;;;;;;;4.63;3.58;;;23.60;62.30;;;;;;5034703;28;20025;-13
2022/08/04 00:17:52;;;;;;;6.82;3.53;;;23.60;62.20;;;;;;5034462;28;20032;-13
2022/08/04 00:20:20;;;;;;;5.53;3.72;;;23.60;62.40;;;;;;5031154;28;20040;-13
2022/08/04 00:22:48;;;;;;;6.03;3.92;;;23.70;62.50;;;;;;5035191;28;20033;-13
2022/08/04 00:25:14;;;;;;;5.88;3.70;;;23.60;62.60;;;;;;5035053;28;20028;-13
2022/08/04 00:27:41;;;;;;;4.50;3.58;;;23.70;62.60;;;;;;5034735;28;20033;-13
2022/08/04 00:30:08;;;;;;;6.85;3.92;;;23.70;62.70;;;;;;5034346;28;20385;-13
2022/08/04 00:32:34;;;;;;;5.25;4.00;;;23.70;62.70;;;;;;5034069;28;20033;-13
2022/08/04 00:35:02;;;;;;;5.75;4.32;;;23.70;62.60;;;;;;5034519;28;20022;-15
2022/08/04 00:37:28;;;;;;;5.65;3.65;;;23.80;62.70;;;;;;5034532;28;20509;-13
2022/08/04 00:39:55;;;;;;;5.88;3.92;;;23.80;62.90;;;;;;5033302;28;20041;-13
2022/08/04 00:43:09;;;;;;;6.93;4.95;;;23.80;63.30;;;;;;5034052;28;20104;-13
2022/08/04 00:45:47;;;;;;;4.50;3.97;;;23.90;63.70;;;;;;5012713;28;20065;-13
2022/08/04 00:48:40;;;;;;;8.07;5.15;;;23.90;63.60;;;;;;5012243;28;20052;-12
2022/08/04 00:51:15;;;;;;;5.55;4.45;;;23.90;63.70;;;;;;5012246;28;20038;-13
2022/08/04 00:54:04;;;;;;;7.60;5.25;;;23.80;63.80;;;;;;5012134;28;20089;-13
2022/08/04 00:56:46;;;;;;;7.03;5.10;;;23.80;63.80;;;;;;5011871;28;20109;-13
2022/08/04 00:59:30;;;;;;;7.28;5.20;;;23.70;63.60;;;;;;5012157;28;20520;-13
2022/08/04 01:02:16;;;;;;;5.45;4.20;;;23.60;63.80;;;;;;4995499;28;20429;-13
2022/08/04 01:04:50;;;;;;;6.40;4.18;;;23.50;63.80;;;;;;5012045;28;20045;-13
2022/08/04 01:07:41;;;;;;;7.25;4.63;;;23.50;63.90;;;;;;5011925;28;20381;-13
2022/08/04 01:10:17;;;;;;;7.82;4.43;;;23.40;64.00;;;;;;5012099;28;20030;-13
2022/08/04 01:13:17;;;;;;;6.28;4.70;;;23.40;64.60;;;;;;5011914;28;20026;-13
2022/08/04 01:16:15;;;;;;;8.52;5.05;;;23.20;65.30;;;;;;5001554;28;20113;-13
2022/08/04 01:19:04;;;;;;;7.10;4.50;;;23.10;65.10;;;;;;4994545;28;20470;-14
2022/08/04 01:21:42;;;;;;;5.88;4.60;;;23.00;65.10;;;;;;5025550;28;20393;-14
2022/08/04 01:24:14;;;;;;;6.90;4.53;;;22.90;65.60;;;;;;5033757;28;20026;-13
2022/08/04 01:26:56;;;;;;;5.85;4.53;;;22.90;65.80;;;;;;5032136;28;20033;-13
2022/08/04 01:29:25;;;;;;;6.37;4.30;;;22.80;66.00;;;;;;5033770;28;20106;-13
2022/08/04 01:32:12;;;;;;;7.30;4.47;;;22.80;66.30;;;;;;5033242;28;20024;-13
2022/08/04 01:34:46;;;;;;;6.97;4.65;;;22.70;66.50;;;;;;5033160;28;20069;-13
2022/08/04 01:37:44;;;;;;;5.45;3.80;;;22.70;66.70;;;;;;5033328;28;20022;-13
2022/08/04 01:40:13;;;;;;;9.57;5.43;;;22.50;67.00;;;;;;5033209;28;20167;-13
2022/08/04 01:42:41;;;;;;;5.13;4.55;;;22.40;69.90;;;;;;5033470;28;20033;-13
2022/08/04 01:45:10;;;;;;;8.57;5.60;;;22.30;69.30;;;;;;5033537;28;20473;-13
2022/08/04 01:47:39;;;;;;;6.25;4.60;;;22.20;69.20;;;;;;5032955;28;20051;-13
2022/08/04 01:50:11;;;;;;;8.02;4.50;;;22.10;69.40;;;;;;5033172;28;20033;-13
2022/08/04 01:52:39;;;;;;;7.10;4.35;;;22.00;69.00;;;;;;5032770;28;20022;-14
2022/08/04 01:55:11;;;;;;;7.57;5.00;;;22.00;69.10;;;;;;5033020;28;20037;-14
2022/08/04 01:57:49;;;;;;;6.68;4.43;;;22.00;69.60;;;;;;5033352;28;20025;-13
2022/08/04 02:00:27;;;;;;;6.57;4.55;;;22.00;69.30;;;;;;5033102;28;20042;-13
2022/08/04 02:02:55;;;;;;;7.03;4.35;;;21.90;69.10;;;;;;5033269;28;20543;-13
2022/08/04 02:05:26;;;;;;;6.72;4.22;;;21.90;69.20;;;;;;5033021;28;20032;-13
2022/08/04 02:08:04;;;;;;;6.55;4.25;;;21.90;69.50;;;;;;5033317;28;20112;-13
2022/08/04 02:10:53;;;;;;;7.63;4.90;;;21.90;70.00;;;;;;5032984;28;20025;-14
2022/08/04 02:14:00;;;;;;;8.90;5.22;;;21.90;69.90;;;;;;5032920;28;20025;-13
2022/08/04 02:16:44;;;;;;;4.97;4.22;;;21.80;70.10;;;;;;5029729;28;20037;-13
2022/08/04 02:19:28;;;;;;;8.10;5.38;;;21.80;70.40;;;;;;5033271;28;20026;-13
2022/08/04 02:22:07;;;;;;;6.03;4.80;;;21.80;70.30;;;;;;5033082;28;20033;-14
2022/08/04 02:24:35;;;;;;;6.43;5.20;;;21.70;70.10;;;;;;5032663;28;20025;-14
2022/08/04 02:27:03;;;;;;;6.65;4.90;;;21.80;70.20;;;;;;5033068;28;20040;-13
2022/08/04 02:29:53;;;;;;;6.20;4.55;;;21.80;70.10;;;;;;5032645;28;20463;-13
2022/08/04 02:32:28;;;;;;;12.10;7.03;;;21.70;70.40;;;;;;5032423;28;20022;-15
2022/08/04 02:34:57;;;;;;;9.45;6.75;;;21.70;71.10;;;;;;5033166;28;20025;-13
2022/08/04 02:37:25;;;;;;;7.22;5.47;;;21.70;71.00;;;;;;5032888;28;20487;-13
2022/08/04 02:39:59;;;;;;;10.77;6.85;;;21.60;71.20;;;;;;5032552;28;20116;-13
2022/08/04 02:42:29;;;;;;;8.25;5.50;;;21.60;71.70;;;;;;5032585;28;20026;-13
2022/08/04 02:44:58;;;;;;;7.15;5.63;;;21.50;71.40;;;;;;5032878;28;20057;-13
2022/08/04 02:47:26;;;;;;;6.78;5.57;;;21.50;71.50;;;;;;5032369;28;20056;-15
2022/08/04 02:49:55;;;;;;;7.32;5.03;;;21.40;71.40;;;;;;5032794;28;20492;-14
2022/08/04 02:52:23;;;;;;;6.28;4.72;;;21.40;71.50;;;;;;5032630;28;20083;-16
2022/08/04 02:54:54;;;;;;;8.35;5.70;;;21.40;71.30;;;;;;5032822;28;20079;-14
2022/08/04 02:57:25;;;;;;;6.43;4.93;;;21.40;71.50;;;;;;5032993;28;20030;-13
2022/08/04 03:00:14;;;;;;;6.72;4.72;;;21.40;71.50;;;;;;5032740;28;20029;-14
2022/08/04 03:03:01;;;;;;;6.18;4.80;;;21.40;71.40;;;;;;5033400;28;20075;-11
2022/08/04 03:06:12;;;;;;;7.63;5.40;;;21.40;71.50;;;;;;5036375;28;20018;-14
2022/08/04 03:08:59;;;;;;;8.88;4.80;;;21.40;71.50;;;;;;5035629;28;20026;-13
2022/08/04 03:11:34;;;;;;;6.45;4.55;;;21.40;71.50;;;;;;5036247;28;20037;-14
2022/08/04 03:14:37;;;;;;;5.53;4.80;;;21.40;71.30;;;;;;5036107;28;20105;-13
2022/08/04 03:17:40;;;;;;;5.97;4.67;;;21.40;71.60;;;;;;5035684;28;20116;-13
2022/08/04 03:20:31;;;;;;;8.60;5.00;;;21.40;71.50;;;;;;5035988;28;20064;-13
2022/08/04 03:23:28;;;;;;;6.75;5.50;;;21.30;71.70;;;;;;5035965;28;20028;-13
2022/08/04 03:26:20;;;;;;;8.13;5.90;;;21.30;71.60;;;;;;5035986;28;20025;-14
2022/08/04 03:29:20;;;;;;;6.85;4.97;;;21.30;71.60;;;;;;5035902;28;20033;-13
2022/08/04 03:31:47;;;;;;;9.02;6.13;;;21.30;72.10;;;;;;5035990;28;20044;-15
2022/08/04 03:34:22;;;;;;;7.05;4.88;;;21.20;71.70;;;;;;5035466;28;20396;-13
2022/08/04 03:37:14;;;;;;;7.80;5.53;;;21.20;71.70;;;;;;5035438;28;20451;-14
2022/08/04 03:40:30;;;;;;;7.18;5.10;;;21.20;71.40;;;;;;5027106;28;20042;-13
2022/08/04 03:43:24;;;;;;;8.45;5.43;;;21.20;71.50;;;;;;5035332;28;20037;-14
2022/08/04 03:46:26;;;;;;;6.15;5.28;;;21.20;71.50;;;;;;5035256;28;20075;-13
2022/08/04 03:49:16;;;;;;;8.15;5.40;;;21.10;71.40;;;;;;5035402;28;20116;-13
2022/08/04 03:55:23;;;;;;;8.10;5.60;;;21.10;71.40;;;;;;5035441;28;20033;-15
2022/08/04 03:58:07;;;;;;;6.97;4.82;;;21.10;71.50;;;;;;5034986;28;20547;-14
2022/08/04 04:00:42;;;;;;;4.90;4.30;;;21.10;71.30;;;;;;5034790;28;20076;-14
2022/08/04 04:03:36;;;;;;;8.15;5.13;;;21.10;71.30;;;;;;5034871;28;20580;-13
2022/08/04 04:06:32;;;;;;;6.90;4.90;;;21.10;71.30;;;;;;5035133;28;20035;-13
2022/08/04 04:09:26;;;;;;;6.65;4.90;;;21.10;71.60;;;;;;5035263;28;20022;-13
2022/08/04 04:12:10;;;;;;;7.45;4.80;;;21.10;71.90;;;;;;5034764;28;20401;-13
2022/08/04 04:14:46;;;;;;;6.07;4.30;;;21.10;71.50;;;;;;5033647;28;20404;-13
2022/08/04 04:17:40;;;;;;;6.82;5.00;;;21.00;71.60;;;;;;5034869;28;20060;-14
2022/08/04 04:20:20;;;;;;;8.15;5.22;;;21.10;71.60;;;;;;5034724;28;20036;-13
2022/08/04 04:23:02;;;;;;;6.28;5.13;;;21.10;71.60;;;;;;5034620;28;20484;-13
2022/08/04 04:25:28;;;;;;;8.60;5.78;;;21.10;71.60;;;;;;5034843;28;20025;-13
2022/08/04 04:28:34;;;;;;;7.30;6.20;;;21.10;71.50;;;;;;5034467;28;20366;-14
2022/08/04 04:31:35;;;;;;;12.82;8.13;;;21.10;72.70;;;;;;5034811;28;20112;-13
2022/08/04 04:34:19;;;;;;;8.60;6.43;;;21.00;72.40;;;;;;5034366;28;20508;-13
2022/08/04 04:37:06;;;;;;;19.67;7.63;;;21.00;72.50;;;;;;5034231;28;20034;-13
2022/08/04 04:39:42;;;;;;;10.98;6.68;;;21.00;72.30;;;;;;5034536;28;20055;-15
2022/08/04 04:42:20;;;;;;;9.63;7.18;;;21.10;72.40;;;;;;5034238;28;20061;-13
2022/08/04 04:45:08;;;;;;;10.40;7.13;;;21.10;72.50;;;;;;5034526;28;20040;-16
2022/08/04 04:47:51;;;;;;;9.80;6.97;;;21.20;72.40;;;;;;5033904;28;20077;-13
2022/08/04 04:50:42;;;;;;;7.93;6.53;;;21.40;72.10;;;;;;5033973;28;20388;-13
2022/08/04 04:53:36;;;;;;;7.25;5.15;;;21.40;72.00;;;;;;5034031;28;20041;-13
2022/08/04 04:56:15;;;;;;;9.25;5.95;;;21.50;71.80;;;;;;5033810;28;20025;-14
2022/08/04 04:58:42;;;;;;;11.75;7.22;;;21.60;71.50;;;;;;5034244;28;20029;-13
2022/08/04 05:01:08;;;;;;;13.88;7.72;;;21.70;71.40;;;;;;5033715;28;20029;-15
2022/08/04 05:03:40;;;;;;;9.48;6.90;;;21.80;71.30;;;;;;5033990;28;20037;-13
2022/08/04 05:06:27;;;;;;;10.70;6.55;;;21.90;71.20;;;;;;5033686;28;20083;-13
2022/08/04 05:09:29;;;;;;;10.80;7.43;;;22.10;71.10;;;;;;5033740;28;20030;-13
2022/08/04 05:12:21;;;;;;;8.27;5.95;;;22.20;71.10;;;;;;5034048;28;20048;-13
2022/08/04 05:14:49;;;;;;;9.10;6.55;;;22.40;70.80;;;;;;5034266;28;20033;-13
2022/08/04 05:17:26;;;;;;;8.75;6.00;;;22.40;70.20;;;;;;5033469;28;20072;-13
2022/08/04 05:20:22;;;;;;;6.35;5.22;;;22.50;70.00;;;;;;5033823;28;20030;-14
2022/08/04 05:23:00;;;;;;;13.02;7.47;;;22.80;70.00;;;;;;5033416;28;20065;-14
2022/08/04 05:25:58;;;;;;;8.35;5.95;;;22.80;69.70;;;;;;5033287;28;20118;-13
2022/08/04 05:28:41;;;;;;;11.82;6.38;;;23.00;69.50;;;;;;5032933;28;20036;-13
2022/08/04 05:31:15;;;;;;;9.50;6.47;;;23.20;68.90;;;;;;5033421;28;20108;-13
2022/08/04 05:34:16;;;;;;;18.75;10.43;;;23.30;68.60;;;;;;5033557;28;20034;-13
2022/08/04 05:36:52;;;;;;;9.23;6.43;;;23.40;68.50;;;;;;5033724;28;20030;-13
2022/08/04 05:39:24;;;;;;;9.45;6.53;;;23.50;68.10;;;;;;5033536;28;20083;-13
2022/08/04 05:41:51;;;;;;;11.02;8.57;;;23.70;67.80;;;;;;5033213;28;20033;-13
2022/08/04 05:44:19;;;;;;;10.95;9.00;;;23.80;67.70;;;;;;5032998;28;20120;-14
2022/08/04 05:46:49;;;;;;;10.23;7.43;;;23.90;67.80;;;;;;5033105;28;20528;-15
2022/08/04 05:49:16;;;;;;;8.38;6.55;;;24.00;67.60;;;;;;5033301;28;20443;-13
2022/08/04 05:51:44;;;;;;;9.25;6.93;;;24.10;67.40;;;;;;5033408;28;20037;-13
2022/08/04 05:54:12;;;;;;;11.13;8.35;;;24.20;67.20;;;;;;5033098;28;20029;-13
2022/08/04 05:56:39;;;;;;;9.38;6.70;;;24.30;67.20;;;;;;5033120;28;20022;-14
2022/08/04 05:59:06;;;;;;;14.70;8.38;;;24.40;66.80;;;;;;5033213;28;20018;-13
2022/08/04 06:01:34;;;;;;;10.85;8.02;;;24.50;66.60;;;;;;5031719;28;20052;-14
2022/08/04 06:04:02;;;;;;;12.55;7.95;;;24.60;66.30;;;;;;5032837;28;20513;-14
2022/08/04 06:06:30;;;;;;;11.13;6.63;;;24.80;66.00;;;;;;5033075;28;20041;-13
2022/08/04 06:08:57;;;;;;;11.57;8.30;;;24.80;65.70;;;;;;5033241;28;20030;-13
2022/08/04 06:11:28;;;;;;;9.00;7.00;;;24.90;65.50;;;;;;5032896;28;20389;-13
2022/08/04 06:13:58;;;;;;;8.88;6.75;;;25.00;65.00;;;;;;5033104;28;20028;-13
2022/08/04 06:16:28;;;;;;;7.80;6.63;;;25.10;65.00;;;;;;5032999;28;20069;-13
2022/08/04 06:18:57;;;;;;;9.85;6.43;;;25.30;64.50;;;;;;5033499;28;20037;-14
2022/08/04 06:21:27;;;;;;;8.68;6.60;;;25.40;64.30;;;;;;5031551;28;20030;-15
2022/08/04 06:23:55;;;;;;;10.18;7.53;;;25.50;64.00;;;;;;5032825;28;20037;-15
2022/08/04 06:26:24;;;;;;;11.52;7.40;;;25.80;64.00;;;;;;5032673;28;20025;-13
2022/08/04 06:28:51;;;;;;;7.97;6.20;;;26.00;63.20;;;;;;5033245;28;20025;-12
2022/08/04 06:31:41;;;;;;;11.18;5.68;;;26.10;62.80;;;;;;5032937;28;20029;-13
2022/08/04 06:34:07;;;;;;;14.13;6.78;;;26.30;62.50;;;;;;5032575;28;20038;-13
2022/08/04 06:36:39;;;;;;;9.48;5.90;;;26.40;61.80;;;;;;5032642;28;20025;-13
2022/08/04 06:39:07;;;;;;;7.32;5.70;;;26.50;61.30;;;;;;5035404;28;20485;-13
2022/08/04 06:41:34;;;;;;;7.75;5.78;;;26.60;61.30;;;;;;5036701;28;20034;-13
2022/08/04 06:44:10;;;;;;;7.30;5.13;;;26.80;60.80;;;;;;5036528;28;20034;-14
2022/08/04 06:46:39;;;;;;;6.68;5.38;;;26.90;60.00;;;;;;5036125;28;20053;-13
2022/08/04 06:49:06;;;;;;;9.07;4.72;;;27.10;59.90;;;;;;5036570;28;20029;-13
2022/08/04 06:51:35;;;;;;;7.63;5.45;;;27.30;59.40;;;;;;5036663;28;20026;-13
2022/08/04 06:54:01;;;;;;;8.00;5.93;;;27.40;58.80;;;;;;5036422;28;20033;-12
2022/08/04 06:56:30;;;;;;;8.57;5.57;;;27.50;58.70;;;;;;5034749;28;20484;-13
2022/08/04 06:58:58;;;;;;;7.13;4.95;;;27.50;58.40;;;;;;5036382;28;20026;-13
2022/08/04 07:01:25;;;;;;;8.50;5.00;;;27.70;58.10;;;;;;5036220;28;20064;-13
2022/08/04 07:03:52;;;;;;;7.88;5.03;;;27.80;57.70;;;;;;5035982;28;20489;-14
2022/08/04 07:06:20;;;;;;;6.82;4.97;;;27.90;57.50;;;;;;5035874;28;20057;-14
2022/08/04 07:08:47;;;;;;;8.40;5.00;;;28.20;57.10;;;;;;5036222;28;20037;-13
2022/08/04 07:11:13;;;;;;;8.18;4.40;;;28.40;56.70;;;;;;5036529;28;20029;-12
2022/08/04 07:13:42;;;;;;;6.93;4.85;;;28.60;56.30;;;;;;5036153;28;20091;-13
2022/08/04 07:16:12;;;;;;;6.63;4.45;;;28.80;55.80;;;;;;5036117;28;20029;-12
2022/08/04 07:18:38;;;;;;;9.55;5.45;;;28.90;55.50;;;;;;5035399;28;20036;-12
2022/08/04 07:21:04;;;;;;;8.00;4.47;;;29.10;55.00;;;;;;5036194;28;20022;-13
2022/08/04 07:23:31;;;;;;;6.15;4.25;;;29.20;54.50;;;;;;5035846;28;20052;-12
2022/08/04 07:25:57;;;;;;;7.05;4.30;;;29.30;53.50;;;;;;5035772;28;20507;-12
2022/08/04 07:28:26;;;;;;;6.03;3.58;;;29.50;52.90;;;;;;5035470;28;20485;-13
2022/08/04 07:30:53;;;;;;;4.30;3.63;;;29.70;52.40;;;;;;5035470;28;20377;-14
2022/08/04 07:33:21;;;;;;;5.60;3.60;;;29.80;51.70;;;;;;5034136;28;20041;-13
2022/08/04 07:35:51;;;;;;;4.78;3.80;;;30.00;51.40;;;;;;5035751;28;20091;-13
2022/08/04 07:38:17;;;;;;;5.93;3.42;;;30.20;51.10;;;;;;5035093;28;20477;-14
2022/08/04 07:40:44;;;;;;;4.45;3.10;;;30.30;50.10;;;;;;5035215;28;20035;-13
2022/08/04 07:43:10;;;;;;;7.68;3.35;;;30.50;49.80;;;;;;5035650;28;20060;-13
2022/08/04 07:45:36;;;;;;;5.13;3.17;;;30.80;49.10;;;;;;5035453;28;20084;-13
2022/08/04 07:48:04;;;;;;;6.05;3.45;;;31.00;48.30;;;;;;5034934;28;20046;-13
2022/08/04 07:50:32;;;;;;;4.25;3.50;;;31.20;48.00;;;;;;5034961;28;20029;-13
2022/08/04 07:52:59;;;;;;;10.82;4.03;;;31.40;47.80;;;;;;5035032;28;20052;-13
2022/08/04 07:55:27;;;;;;;4.13;3.42;;;31.50;46.80;;;;;;5035384;28;20032;-13
2022/08/04 07:57:53;;;;;;;4.28;3.05;;;31.70;47.00;;;;;;5035245;28;20045;-13
2022/08/04 08:00:19;;;;;;;6.55;3.50;;;31.90;47.10;;;;;;5035038;28;20098;-13
2022/08/04 08:02:49;;;;;;;5.25;3.60;;;32.10;45.30;;;;;;5035132;28;20037;-12
2022/08/04 08:05:19;;;;;;;5.15;3.65;;;32.20;45.40;;;;;;5035176;28;20481;-13
2022/08/04 08:07:49;;;;;;;8.63;4.25;;;32.40;45.00;;;;;;5035236;28;20036;-13
2022/08/04 08:10:16;;;;;;;6.03;3.88;;;32.60;44.40;;;;;;5034645;28;20059;-14
2022/08/04 08:12:42;;;;;;;5.55;3.80;;;32.80;44.30;;;;;;5034711;28;20029;-12
2022/08/04 08:15:12;;;;;;;5.82;3.70;;;32.90;44.50;;;;;;5035118;28;20025;-13
2022/08/04 08:17:38;;;;;;;6.18;3.70;;;33.10;44.50;;;;;;5034538;28;20423;-13
2022/08/04 08:20:07;;;;;;;7.68;3.85;;;33.40;43.70;;;;;;5034570;28;20409;-13
2022/08/04 08:22:33;;;;;;;6.90;3.50;;;33.60;42.90;;;;;;5034369;28;20029;-13
2022/08/04 08:24:59;;;;;;;5.80;3.42;;;33.90;42.30;;;;;;5034932;28;20404;-13
2022/08/04 08:27:25;;;;;;;5.72;3.47;;;34.10;41.60;;;;;;5034538;28;20032;-12
2022/08/04 08:29:52;;;;;;;6.25;2.97;;;34.40;41.00;;;;;;5034729;28;20072;-13
2022/08/04 08:32:19;;;;;;;4.47;3.03;;;34.60;40.40;;;;;;5034171;28;20492;-13
2022/08/04 08:34:46;;;;;;;6.22;2.70;;;34.80;38.90;;;;;;5034580;28;20025;-13
2022/08/04 08:37:18;;;;;;;4.45;2.83;;;34.90;38.10;;;;;;5034757;28;20033;-13
2022/08/04 08:39:50;;;;;;;5.93;3.20;;;35.20;37.70;;;;;;5034295;28;20087;-13
2022/08/04 08:42:28;;;;;;;5.60;2.80;;;35.40;36.70;;;;;;5034030;28;20080;-13
2022/08/04 08:45:34;;;;;;;3.88;2.85;;;35.60;36.40;;;;;;5032883;28;20445;-13
2022/08/04 08:48:18;;;;;;;5.25;3.10;;;35.60;36.20;;;;;;5016239;28;20521;-13
2022/08/04 08:51:14;;;;;;;2.53;2.33;;;35.70;37.00;;;;;;5034061;28;20032;-12
2022/08/04 08:54:39;;;;;;;5.78;2.92;;;35.90;35.10;;;;;;5034021;28;20032;-13
2022/08/04 08:57:17;;;;;;;3.80;2.63;;;36.00;36.50;;;;;;5022492;28;20120;-13
2022/08/04 09:00:01;;;;;;;3.90;2.67;;;36.20;36.10;;;;;;5034101;28;20030;-13
2022/08/04 09:02:34;;;;;;;6.78;3.08;;;36.40;34.30;;;;;;5033084;28;20053;-13
2022/08/04 09:05:39;;;;;;;5.38;2.75;;;36.40;34.10;;;;;;5034081;28;20042;-13
2022/08/04 09:08:35;;;;;;;4.57;2.72;;;36.60;36.00;;;;;;5033748;28;20017;-13
2022/08/04 09:11:22;;;;;;;4.38;2.60;;;37.00;34.40;;;;;;5033950;28;20079;-13
2022/08/04 09:14:25;;;;;;;3.97;2.63;;;37.40;34.60;;;;;;5033653;28;20037;-14
2022/08/04 09:17:01;;;;;;;5.33;2.90;;;37.70;32.80;;;;;;5025440;28;20030;-14
2022/08/04 09:19:47;;;;;;;4.97;2.50;;;37.80;33.30;;;;;;5033551;28;20048;-13
2022/08/04 09:22:34;;;;;;;4.28;2.83;;;37.70;32.40;;;;;;5033538;28;20021;-14
2022/08/04 09:25:17;;;;;;;4.40;2.80;;;37.20;33.70;;;;;;5033416;28;20068;-14
2022/08/04 09:27:54;;;;;;;3.28;2.40;;;36.90;34.20;;;;;;5033706;28;20104;-14
2022/08/04 09:30:38;;;;;;;2.55;2.30;;;36.90;34.50;;;;;;5033332;28;20108;-14
2022/08/04 09:33:37;;;;;;;3.38;2.50;;;37.00;34.40;;;;;;5033516;28;20105;-14
2022/08/04 09:36:38;;;;;;;3.03;2.72;;;37.20;34.60;;;;;;5033317;28;20116;-13
2022/08/04 09:39:39;;;;;;;2.75;2.55;;;37.40;34.20;;;;;;5011771;28;20160;-13
2022/08/04 09:42:32;;;;;;;2.53;2.30;;;37.80;33.20;;;;;;4989699;28;20537;-13
2022/08/04 09:45:29;;;;;;;5.13;2.60;;;38.10;31.10;;;;;;4995024;28;20080;-13
2022/08/04 09:48:18;;;;;;;4.53;2.95;;;38.40;31.20;;;;;;5011153;28;20144;-13
2022/08/04 09:50:52;;;;;;;2.95;2.67;;;38.60;30.80;;;;;;5011339;28;20038;-14
2022/08/04 09:53:37;;;;;;;4.20;2.53;;;38.70;30.50;;;;;;5011284;28;20398;-13
2022/08/04 09:56:11;;;;;;;2.90;2.60;;;38.80;30.80;;;;;;5011387;28;20030;-13
2022/08/04 09:58:40;;;;;;;3.55;2.67;;;38.90;30.90;;;;;;4994756;28;20038;-14
2022/08/04 10:01:16;;;;;;;8.02;2.65;;;38.80;31.20;;;;;;5011560;28;20140;-13
2022/08/04 10:03:58;;;;;;;3.42;2.90;;;38.50;31.20;;;;;;5011281;28;20045;-13
2022/08/04 10:06:23;;;;;;;4.68;2.88;;;38.10;31.20;;;;;;5011161;28;20097;-13
2022/08/04 10:09:13;;;;;;;3.30;3.00;;;37.90;31.30;;;;;;5011175;28;20036;-13
2022/08/04 10:11:53;;;;;;;5.85;2.80;;;37.90;31.20;;;;;;5011601;28;20034;-13
2022/08/04 10:14:43;;;;;;;3.53;2.97;;;37.70;31.50;;;;;;5015653;28;20160;-14
2022/08/04 10:17:37;;;;;;;4.03;2.83;;;37.80;31.00;;;;;;5036966;28;20029;-13
2022/08/04 10:20:37;;;;;;;5.00;2.63;;;38.20;31.20;;;;;;5037192;28;20112;-13
2022/08/04 10:23:41;;;;;;;4.18;2.70;;;38.50;30.00;;;;;;5037034;28;20393;-13
2022/08/04 10:26:19;;;;;;;2.90;2.60;;;38.80;29.90;;;;;;5036952;28;20477;-13
2022/08/04 10:29:26;;;;;;;3.63;2.78;;;39.20;29.10;;;;;;5036836;28;20026;-13
2022/08/04 10:32:03;;;;;;;3.63;2.42;;;39.60;27.80;;;;;;5014839;28;20490;-13
2022/08/04 10:34:47;;;;;;;4.03;2.70;;;39.90;28.70;;;;;;5014814;28;20127;-13
2022/08/04 10:37:23;;;;;;;3.83;2.63;;;39.90;28.10;;;;;;5014989;28;20021;-13
2022/08/04 10:41:02;;;;;;;2.90;2.40;;;39.90;28.40;;;;;;5014861;28;20037;-14
2022/08/04 10:43:20;;;;;;;2.83;2.50;;;40.10;28.60;;;;;;4993833;28;20092;-14
2022/08/04 10:46:08;;;;;;;3.05;2.33;;;40.60;27.30;;;;;;5014235;28;20053;-15
2022/08/04 10:48:53;;;;;;;3.63;2.38;;;41.00;26.70;;;;;;5011415;28;20112;-14
2022/08/04 10:51:33;;;;;;;6.82;2.83;;;41.40;26.10;;;;;;5014528;28;20157;-14
2022/08/04 10:54:02;;;;;;;4.68;2.83;;;41.40;26.40;;;;;;5014617;28;20022;-14
2022/08/04 10:56:40;;;;;;;3.33;2.60;;;41.40;26.10;;;;;;5014251;28;20108;-14
2022/08/04 10:59:23;;;;;;;4.28;2.60;;;41.30;26.40;;;;;;5014373;28;20066;-14
2022/08/04 11:01:54;;;;;;;5.18;2.60;;;41.40;25.80;;;;;;5014188;28;20509;-14
2022/08/04 11:04:46;;;;;;;2.97;2.28;;;41.60;25.80;;;;;;5014153;28;20060;-14
2022/08/04 11:07:14;;;;;;;4.00;2.83;;;41.70;25.40;;;;;;5035583;28;20509;-13
2022/08/04 11:09:44;;;;;;;3.08;2.80;;;42.00;24.40;;;;;;5036296;28;20033;-13
2022/08/04 11:12:18;;;;;;;2.67;2.47;;;41.70;24.80;;;;;;5034745;28;20036;-13
2022/08/04 11:14:54;;;;;;;4.05;2.65;;;41.40;25.00;;;;;;5036048;28;20029;-13
2022/08/04 11:17:25;;;;;;;3.03;2.38;;;41.20;25.30;;;;;;5036124;28;20018;-13
2022/08/04 11:20:09;;;;;;;2.60;2.40;;;40.90;25.70;;;;;;5035849;28;20107;-13
2022/08/04 11:22:43;;;;;;;2.88;2.65;;;41.00;25.90;;;;;;5035650;28;20040;-13
2022/08/04 11:25:47;;;;;;;3.17;2.80;;;41.40;25.40;;;;;;5035064;28;20026;-14
2022/08/04 11:28:44;;;;;;;3.35;2.70;;;41.90;24.80;;;;;;5013937;28;20030;-13
2022/08/04 11:31:18;;;;;;;3.10;2.80;;;42.40;24.80;;;;;;5013825;28;20069;-13
2022/08/04 11:34:04;;;;;;;3.05;2.42;;;42.80;24.40;;;;;;5013661;28;20084;-13
2022/08/04 11:36:52;;;;;;;2.75;2.40;;;43.20;23.90;;;;;;5013509;28;20417;-13
2022/08/04 11:39:33;;;;;;;4.35;3.00;;;43.60;23.50;;;;;;5014024;28;20101;-13
2022/08/04 11:42:13;;;;;;;3.83;2.60;;;43.90;22.60;;;;;;5013480;28;20052;-13
2022/08/04 11:44:47;;;;;;;4.55;2.30;;;43.90;23.30;;;;;;5013672;28;20268;-13
2022/08/04 11:47:54;;;;;;;3.40;2.50;;;44.20;22.90;;;;;;5013597;28;20060;-13
2022/08/04 11:50:26;;;;;;;3.33;2.60;;;44.20;22.80;;;;;;5010601;28;20042;-13
2022/08/04 11:52:55;;;;;;;2.97;2.55;;;44.10;22.90;;;;;;5013359;28;20057;-13
2022/08/04 11:55:24;;;;;;;3.40;2.55;;;44.00;22.90;;;;;;5013672;28;20041;-13
2022/08/04 11:57:50;;;;;;;2.80;2.58;;;43.90;22.90;;;;;;5013254;28;20036;-13
2022/08/04 12:00:18;;;;;;;2.38;2.22;;;43.70;22.90;;;;;;5012872;28;20113;-13
2022/08/04 12:02:59;;;;;;;3.15;2.40;;;43.50;23.30;;;;;;5029047;28;20091;-13
2022/08/04 12:05:34;;;;;;;4.72;2.47;;;43.70;23.40;;;;;;5034960;28;20481;-13
2022/08/04 12:08:26;;;;;;;3.58;2.50;;;44.10;23.00;;;;;;5035111;28;20028;-13
2022/08/04 12:11:10;;;;;;;;;;;44.60;22.40;;;;;;5035842;28;20095;-13
2022/08/04 12:14:13;;;;;;;3.97;2.60;;;44.80;22.70;;;;;;5033582;28;20269;-13
2022/08/04 12:16:54;;;;;;;2.80;2.60;;;45.20;22.40;;;;;;5023010;28;20068;-13
2022/08/04 12:19:29;;;;;;;2.60;2.40;;;45.50;22.60;;;;;;5034862;28;20377;-13
2022/08/04 12:22:03;;;;;;;2.35;2.25;;;45.80;22.10;;;;;;5034594;28;20041;-13
2022/08/04 12:24:36;;;;;;;2.70;2.50;;;45.90;21.10;;;;;;5034395;28;20507;-13
2022/08/04 12:27:17;;;;;;;3.13;2.70;;;45.80;21.90;;;;;;5034671;28;20032;-13
2022/08/04 12:29:45;;;;;;;3.67;2.45;;;45.70;22.00;;;;;;5034819;28;20039;-13
2022/08/04 12:32:29;;;;;;;2.67;2.47;;;45.30;22.40;;;;;;5034428;28;20539;-13
2022/08/04 12:35:13;;;;;;;2.58;2.38;;;45.10;22.70;;;;;;5034481;28;20104;-13
2022/08/04 12:37:52;;;;;;;3.00;2.63;;;45.30;22.70;;;;;;5034083;28;20045;-13
2022/08/04 12:40:45;;;;;;;3.65;3.03;;;45.70;22.70;;;;;;5034331;28;20527;-13
2022/08/04 12:43:34;;;;;;;4.05;2.60;;;46.00;21.90;;;;;;5034546;28;20022;-13
2022/08/04 12:46:18;;;;;;;2.63;2.42;;;45.90;22.20;;;;;;5034099;28;20026;-13
2022/08/04 12:48:47;;;;;;;3.40;2.30;;;45.90;22.10;;;;;;5034262;28;20061;-13
2022/08/04 12:51:13;;;;;;;2.33;2.13;;;45.70;22.50;;;;;;5033113;28;20052;-14
2022/08/04 12:53:42;;;;;;;3.75;2.50;;;45.70;22.70;;;;;;5033222;28;20107;-13
2022/08/04 12:56:27;;;;;;;5.18;2.63;;;45.90;22.30;;;;;;5068093;28;20471;-12
2022/08/04 12:59:01;;;;;;;2.80;2.60;;;45.30;21.90;;;;;;5070466;28;20110;-9
2022/08/04 13:01:29;;;;;;;4.05;2.80;;;44.70;22.40;;;;;;5070781;28;20530;-10
2022/08/04 13:04:03;;;;;;;3.92;2.55;;;44.20;23.30;;;;;;5070179;28;20032;-9
2022/08/04 13:06:35;;;;;;;2.83;2.40;;;44.00;23.60;;;;;;5070140;28;20086;-9
2022/08/04 13:09:18;;;;;;;2.47;2.28;;;44.00;23.60;;;;;;5070233;28;20025;-10
2022/08/04 13:11:52;;;;;;;4.55;2.60;;;44.30;23.30;;;;;;5070189;28;20099;-9
2022/08/04 13:14:19;;;;;;;7.40;2.85;;;44.70;23.00;;;;;;5070140;28;20116;-11
2022/08/04 13:16:45;;;;;;;6.43;2.72;;;44.50;22.80;;;;;;5070049;28;20029;-11
2022/08/04 13:19:12;;;;;;;3.35;2.92;;;44.00;23.30;;;;;;5069920;28;20358;-10
2022/08/04 13:21:46;;;;;;;3.40;2.90;;;44.00;23.40;;;;;;5070565;28;20033;-10
2022/08/04 13:24:15;;;;;;;3.78;2.42;;;44.00;23.30;;;;;;5070213;28;20024;-11
2022/08/04 13:26:56;;;;;;;3.97;2.60;;;44.00;23.80;;;;;;5069875;28;20024;-10
2022/08/04 13:29:25;;;;;;;2.80;2.60;;;44.20;23.70;;;;;;5069913;28;20361;-10
2022/08/04 13:31:53;;;;;;;3.80;2.63;;;44.60;23.90;;;;;;5069713;28;20025;-10
2022/08/04 13:34:20;;;;;;;2.90;2.70;;;44.80;23.40;;;;;;5069253;28;20502;-11
2022/08/04 13:36:48;;;;;;;2.63;2.42;;;44.90;22.80;;;;;;5069932;28;20033;-11
2022/08/04 13:39:19;;;;;;;4.03;2.75;;;44.40;23.00;;;;;;5069545;28;20098;-10
2022/08/04 13:41:54;;;;;;;2.83;2.63;;;44.10;23.50;;;;;;5069933;28;20086;-10
2022/08/04 13:44:28;;;;;;;3.28;2.97;;;44.00;23.80;;;;;;5069272;28;20025;-10
2022/08/04 13:47:18;;;;;;;4.47;3.08;;;44.10;23.50;;;;;;5069509;28;20021;-11